Time;durP1;ratioP1;P1;durP2;ratioP2;P2;SDS_P1;SDS_P2;PMS_P1;PMS_P2;Temp;Humidity;BMP_temperature;BMP_pressure;BME280_temperature;BME280_humidity;BME280_pressure;Samples;Min_cycle;Max_cycle;Signal;HPM_P1;HPM_P2
2023/05/01 00:00:13;;;;;;;17.30;10.90;;;;;;;;;;107692;1250;22516;-78
2023/05/01 00:02:59;;;;;;;20.20;12.00;;;;;;;;;;107646;1250;25309;-77
2023/05/01 00:05:26;;;;;;;18.20;11.00;;;;;;;;;;107607;1248;22572;-78
2023/05/01 00:07:52;;;;;;;22.60;11.70;;;;;;;;;;107655;1249;25310;-78
2023/05/01 00:10:19;;;;;;;19.40;11.10;;;;;;;;;;107641;1252;22518;-78
2023/05/01 00:12:45;;;;;;;28.00;12.40;;;;;;;;;;107619;1252;25351;-77
2023/05/01 00:15:11;;;;;;;24.70;12.80;;;;;;;;;;107675;1252;24810;-78
2023/05/01 00:17:38;;;;;;;23.30;12.90;;;;;;;;;;107701;1249;22520;-77
2023/05/01 00:20:05;;;;;;;24.20;12.20;;;;;;;;;;107663;1251;25237;-77
2023/05/01 00:22:31;;;;;;;23.90;12.70;;;;;;;;;;107684;1249;22669;-77
2023/05/01 00:24:57;;;;;;;20.30;10.80;;;;;;;;;;107716;1249;22516;-78
2023/05/01 00:27:24;;;;;;;20.10;9.80;;;;;;;;;;107635;1248;22521;-78
2023/05/01 00:29:50;;;;;;;20.60;9.70;;;;;;;;;;107614;1252;23136;-78
2023/05/01 00:32:17;;;;;;;19.80;9.70;;;;;;;;;;107624;1250;22545;-78
2023/05/01 00:34:46;;;;;;;18.20;10.50;;;;;;;;;;107720;1250;22520;-78
2023/05/01 00:37:13;;;;;;;17.00;8.80;;;;;;;;;;107674;1249;25340;-77
2023/05/01 00:39:39;;;;;;;18.70;9.90;;;;;;;;;;107578;1248;22517;-78
2023/05/01 00:42:05;;;;;;;22.10;10.30;;;;;;;;;;107655;1248;22515;-77
2023/05/01 00:44:32;;;;;;;23.90;10.20;;;;;;;;;;107715;1250;25210;-77
2023/05/01 00:47:01;;;;;;;19.80;10.20;;;;;;;;;;107681;1252;22538;-77
2023/05/01 00:49:27;;;;;;;19.30;9.20;;;;;;;;;;107667;1250;22644;-77
2023/05/01 00:51:53;;;;;;;15.40;9.20;;;;;;;;;;107506;1249;24301;-77
2023/05/01 00:54:21;;;;;;;21.70;10.90;;;;;;;;;;107588;1250;22647;-77
2023/05/01 00:56:48;;;;;;;16.10;8.90;;;;;;;;;;107646;1250;22715;-78
2023/05/01 00:59:14;;;;;;;18.80;9.60;;;;;;;;;;110447;1248;22669;-79
2023/05/01 01:01:41;;;;;;;15.10;8.60;;;;;;;;;;109152;1250;22570;-78
2023/05/01 01:04:07;;;;;;;19.40;9.20;;;;;;;;;;107617;1248;23274;-77
2023/05/01 01:06:37;;;;;;;19.10;9.70;;;;;;;;;;107691;1250;22514;-79
2023/05/01 01:09:31;;;;;;;16.70;9.10;;;;;;;;;;107677;1248;25462;-78
2023/05/01 01:11:58;;;;;;;20.10;10.60;;;;;;;;;;107706;1250;24068;-78
2023/05/01 01:14:31;;;;;;;24.30;12.00;;;;;;;;;;107674;1249;25490;-78
2023/05/01 01:17:02;;;;;;;20.70;10.80;;;;;;;;;;107653;1249;23257;-78
2023/05/01 01:19:37;;;;;;;19.40;9.50;;;;;;;;;;107571;1250;25341;-78
2023/05/01 01:22:06;;;;;;;18.70;10.20;;;;;;;;;;107667;1250;23018;-78
2023/05/01 01:24:46;;;;;;;19.40;9.80;;;;;;;;;;107708;1250;22655;-77
2023/05/01 01:27:21;;;;;;;22.00;10.30;;;;;;;;;;107673;1249;26461;-78
2023/05/01 01:29:48;;;;;;;19.40;9.80;;;;;;;;;;107640;1248;23259;-78
2023/05/01 01:32:20;;;;;;;18.70;9.30;;;;;;;;;;107653;1252;23045;-78
2023/05/01 01:34:48;;;;;;;23.60;10.50;;;;;;;;;;109069;1249;22435;-79
2023/05/01 01:37:19;;;;;;;17.60;10.10;;;;;;;;;;110998;1248;22334;-77
2023/05/01 01:39:51;;;;;;;22.60;10.80;;;;;;;;;;109880;1249;22513;-77
2023/05/01 01:42:18;;;;;;;22.20;10.20;;;;;;;;;;107727;1248;22514;-78
2023/05/01 01:44:47;;;;;;;18.00;9.10;;;;;;;;;;107627;1250;22960;-78
2023/05/01 01:47:14;;;;;;;19.30;8.20;;;;;;;;;;110969;1249;22399;-79
2023/05/01 01:49:44;;;;;;;17.70;10.30;;;;;;;;;;108624;1249;23474;-77
2023/05/01 01:52:13;;;;;;;21.10;10.00;;;;;;;;;;107603;1250;22515;-78
2023/05/01 01:54:41;;;;;;;10.30;6.20;;;;;;;;;;107563;1250;24212;-77
2023/05/01 01:57:08;;;;;;;21.70;10.20;;;;;;;;;;107631;1248;24259;-77
2023/05/01 01:59:35;;;;;;;17.40;9.90;;;;;;;;;;107499;1250;154266;-77
2023/05/01 02:02:01;;;;;;;20.80;10.60;;;;;;;;;;107635;1249;22656;-78
2023/05/01 02:04:27;;;;;;;20.70;9.00;;;;;;;;;;107669;1250;24994;-78
2023/05/01 02:06:54;;;;;;;17.60;8.60;;;;;;;;;;107656;1250;24253;-78
2023/05/01 02:09:21;;;;;;;15.20;7.90;;;;;;;;;;107648;1252;24240;-77
2023/05/01 02:11:47;;;;;;;15.40;9.00;;;;;;;;;;107595;1250;22521;-77
2023/05/01 02:14:14;;;;;;;16.40;8.00;;;;;;;;;;107599;1248;22517;-79
2023/05/01 02:16:40;;;;;;;20.90;10.40;;;;;;;;;;107684;1250;24369;-78
2023/05/01 02:19:07;;;;;;;17.90;8.50;;;;;;;;;;107671;1250;22742;-77
2023/05/01 02:21:33;;;;;;;16.00;8.50;;;;;;;;;;107661;1248;22522;-78
2023/05/01 02:24:00;;;;;;;13.40;7.90;;;;;;;;;;107643;1250;25325;-77
2023/05/01 02:26:26;;;;;;;14.80;9.30;;;;;;;;;;107645;1249;22655;-78
2023/05/01 02:28:53;;;;;;;19.70;9.60;;;;;;;;;;107661;1250;22565;-77
2023/05/01 02:31:20;;;;;;;17.40;9.20;;;;;;;;;;107593;1248;22514;-77
2023/05/01 02:33:47;;;;;;;16.90;9.30;;;;;;;;;;107625;1252;25266;-77
2023/05/01 02:36:13;;;;;;;18.60;10.00;;;;;;;;;;107635;1250;22592;-78
2023/05/01 02:38:40;;;;;;;16.60;8.60;;;;;;;;;;107623;1249;24250;-77
2023/05/01 02:41:07;;;;;;;17.00;8.90;;;;;;;;;;107606;1249;23266;-77
2023/05/01 02:43:34;;;;;;;17.00;9.40;;;;;;;;;;107596;1249;22575;-77
2023/05/01 02:46:00;;;;;;;18.00;10.30;;;;;;;;;;107636;1248;24361;-77
2023/05/01 02:48:27;;;;;;;16.00;9.00;;;;;;;;;;107555;1250;22520;-77
2023/05/01 02:50:54;;;;;;;14.40;8.60;;;;;;;;;;107527;1250;22651;-77
2023/05/01 02:53:21;;;;;;;13.10;7.60;;;;;;;;;;110961;1248;22733;-79
2023/05/01 02:55:48;;;;;;;16.80;7.70;;;;;;;;;;110986;1248;22159;-78
2023/05/01 02:58:15;;;;;;;17.70;7.50;;;;;;;;;;110996;1249;22217;-78
2023/05/01 03:00:41;;;;;;;16.00;7.80;;;;;;;;;;110988;1248;22283;-78
2023/05/01 03:03:08;;;;;;;17.60;7.90;;;;;;;;;;109201;1250;23270;-78
2023/05/01 03:05:34;;;;;;;18.50;8.50;;;;;;;;;;107664;1250;23354;-77
2023/05/01 03:08:00;;;;;;;19.60;8.60;;;;;;;;;;108562;1249;23147;-78
2023/05/01 03:10:27;;;;;;;15.70;8.90;;;;;;;;;;110997;1248;23052;-78
2023/05/01 03:12:53;;;;;;;14.70;7.60;;;;;;;;;;110921;1248;22953;-78
2023/05/01 03:15:19;;;;;;;16.90;8.50;;;;;;;;;;108508;1249;22089;-78
2023/05/01 03:17:46;;;;;;;16.70;9.50;;;;;;;;;;110974;1248;22337;-78
2023/05/01 03:20:12;;;;;;;20.60;10.20;;;;;;;;;;108392;1249;22525;-78
2023/05/01 03:22:39;;;;;;;13.40;8.50;;;;;;;;;;107654;1249;24243;-78
2023/05/01 03:25:05;;;;;;;17.50;9.60;;;;;;;;;;107715;1250;24929;-77
2023/05/01 03:27:32;;;;;;;16.50;10.30;;;;;;;;;;107619;1248;22636;-78
2023/05/01 03:29:58;;;;;;;21.60;10.20;;;;;;;;;;107639;1252;25220;-77
2023/05/01 03:32:24;;;;;;;13.90;8.50;;;;;;;;;;107713;1249;22528;-79
2023/05/01 03:34:51;;;;;;;17.90;8.90;;;;;;;;;;107699;1249;24240;-78
2023/05/01 03:37:17;;;;;;;16.20;8.70;;;;;;;;;;107604;1250;22644;-78
2023/05/01 03:39:44;;;;;;;18.40;8.50;;;;;;;;;;107619;1248;24226;-79
2023/05/01 03:42:10;;;;;;;16.90;9.60;;;;;;;;;;107612;1249;22538;-78
2023/05/01 03:44:37;;;;;;;18.00;9.40;;;;;;;;;;107665;1252;25367;-78
2023/05/01 03:47:03;;;;;;;18.30;10.30;;;;;;;;;;107593;1253;22530;-78
2023/05/01 03:49:30;;;;;;;18.00;9.50;;;;;;;;;;107611;1250;22651;-77
2023/05/01 03:51:56;;;;;;;16.90;10.90;;;;;;;;;;107576;1250;22693;-78
2023/05/01 03:54:23;;;;;;;13.70;8.90;;;;;;;;;;107622;1252;22612;-79
2023/05/01 03:56:49;;;;;;;18.30;10.00;;;;;;;;;;107630;1250;22529;-77
2023/05/01 03:59:16;;;;;;;18.70;10.40;;;;;;;;;;107689;1250;22519;-77
2023/05/01 04:01:43;;;;;;;23.20;14.30;;;;;;;;;;107605;1249;22535;-77
2023/05/01 04:04:09;;;;;;;31.90;18.40;;;;;;;;;;107575;1249;24038;-77
2023/05/01 04:06:36;;;;;;;27.00;19.30;;;;;;;;;;107630;1249;25208;-78
2023/05/01 04:09:02;;;;;;;28.20;16.00;;;;;;;;;;107644;1252;25491;-77
2023/05/01 04:11:28;;;;;;;17.20;11.30;;;;;;;;;;107625;1249;25259;-79
2023/05/01 04:13:55;;;;;;;16.80;7.80;;;;;;;;;;107679;1248;25404;-77
2023/05/01 04:16:21;;;;;;;14.00;8.20;;;;;;;;;;107650;1250;23385;-77
2023/05/01 04:18:48;;;;;;;15.90;7.50;;;;;;;;;;107663;1249;22526;-79
2023/05/01 04:21:16;;;;;;;15.60;7.20;;;;;;;;;;107631;1250;23011;-77
2023/05/01 04:23:42;;;;;;;17.80;8.20;;;;;;;;;;107645;1250;25368;-79
2023/05/01 04:26:09;;;;;;;18.50;9.30;;;;;;;;;;107618;1249;25716;-76
2023/05/01 04:28:35;;;;;;;14.20;9.10;;;;;;;;;;107620;1248;22593;-77
2023/05/01 04:31:01;;;;;;;21.60;11.60;;;;;;;;;;107613;1248;24179;-76
2023/05/01 04:33:28;;;;;;;20.90;14.20;;;;;;;;;;107631;1250;22534;-78
2023/05/01 04:35:55;;;;;;;24.90;14.00;;;;;;;;;;107651;1252;25407;-77
2023/05/01 04:38:21;;;;;;;19.90;13.00;;;;;;;;;;107588;1250;25494;-77
2023/05/01 04:40:48;;;;;;;19.30;12.80;;;;;;;;;;107616;1250;22618;-77
2023/05/01 04:43:14;;;;;;;25.00;13.80;;;;;;;;;;107630;1248;25524;-77
2023/05/01 04:45:40;;;;;;;28.30;16.20;;;;;;;;;;107591;1248;23042;-77
2023/05/01 04:48:07;;;;;;;22.30;15.40;;;;;;;;;;107627;1252;22537;-76
2023/05/01 04:50:33;;;;;;;29.60;17.00;;;;;;;;;;107600;1249;24180;-77
2023/05/01 04:52:59;;;;;;;29.40;18.10;;;;;;;;;;107628;1249;24220;-78
2023/05/01 04:55:26;;;;;;;26.10;14.80;;;;;;;;;;107599;1249;22694;-78
2023/05/01 04:57:52;;;;;;;23.40;12.70;;;;;;;;;;107595;1249;24180;-77
2023/05/01 05:00:19;;;;;;;18.40;11.40;;;;;;;;;;107608;1250;25272;-78
2023/05/01 05:02:46;;;;;;;14.10;9.80;;;;;;;;;;107614;1249;23669;-78
2023/05/01 05:05:12;;;;;;;22.80;11.90;;;;;;;;;;107566;1249;22685;-77
2023/05/01 05:07:38;;;;;;;30.40;16.50;;;;;;;;;;107617;1249;22529;-77
2023/05/01 05:10:05;;;;;;;31.80;14.40;;;;;;;;;;107566;1252;22549;-78
2023/05/01 05:12:31;;;;;;;31.30;12.40;;;;;;;;;;107615;1249;22653;-80
2023/05/01 05:14:58;;;;;;;22.40;12.50;;;;;;;;;;107541;1251;23178;-80
2023/05/01 05:17:24;;;;;;;18.40;11.80;;;;;;;;;;107613;1248;22542;-77
2023/05/01 05:19:50;;;;;;;21.10;12.80;;;;;;;;;;107643;1249;25345;-80
2023/05/01 05:22:17;;;;;;;23.70;11.40;;;;;;;;;;107584;1248;22539;-80
2023/05/01 05:24:43;;;;;;;17.70;9.80;;;;;;;;;;107614;1249;22525;-77
2023/05/01 05:27:10;;;;;;;13.10;9.00;;;;;;;;;;107603;1250;24193;-77
2023/05/01 05:29:36;;;;;;;16.20;10.00;;;;;;;;;;107589;1250;23757;-78
2023/05/01 05:32:02;;;;;;;18.50;10.40;;;;;;;;;;107612;1252;22531;-78
2023/05/01 05:34:29;;;;;;;15.70;10.20;;;;;;;;;;107658;1250;22531;-78
2023/05/01 05:36:55;;;;;;;20.40;10.40;;;;;;;;;;107580;1249;22528;-77
2023/05/01 05:39:22;;;;;;;17.30;9.90;;;;;;;;;;107603;1248;25252;-77
2023/05/01 05:41:49;;;;;;;17.90;10.30;;;;;;;;;;107735;1248;25400;-77
2023/05/01 05:44:15;;;;;;;17.90;10.90;;;;;;;;;;107605;1249;24275;-79
2023/05/01 05:46:42;;;;;;;19.90;10.20;;;;;;;;;;107602;1248;22593;-77
2023/05/01 05:49:08;;;;;;;21.00;10.60;;;;;;;;;;107552;1251;22644;-78
2023/05/01 05:51:35;;;;;;;19.20;10.40;;;;;;;;;;107627;1250;25528;-79
2023/05/01 05:54:02;;;;;;;20.10;10.60;;;;;;;;;;107616;1250;25518;-79
2023/05/01 05:56:28;;;;;;;20.20;9.90;;;;;;;;;;107571;1252;22532;-77
2023/05/01 05:58:54;;;;;;;15.70;10.20;;;;;;;;;;107595;1252;25317;-79
2023/05/01 06:01:21;;;;;;;18.30;10.10;;;;;;;;;;107569;1250;24932;-77
2023/05/01 06:03:47;;;;;;;17.60;9.50;;;;;;;;;;107620;1252;22515;-77
2023/05/01 06:06:14;;;;;;;18.20;8.90;;;;;;;;;;107579;1251;25393;-78
2023/05/01 06:08:40;;;;;;;25.90;10.20;;;;;;;;;;107742;1249;25405;-77
2023/05/01 06:11:07;;;;;;;16.40;9.20;;;;;;;;;;107612;1248;23767;-79
2023/05/01 06:13:34;;;;;;;13.60;8.20;;;;;;;;;;107645;1250;22610;-79
2023/05/01 06:16:00;;;;;;;17.30;9.50;;;;;;;;;;107568;1250;26505;-79
2023/05/01 06:18:28;;;;;;;12.30;7.70;;;;;;;;;;107557;1251;25196;-77
2023/05/01 06:20:55;;;;;;;16.10;8.30;;;;;;;;;;107587;1250;25498;-79
2023/05/01 06:23:21;;;;;;;16.30;8.40;;;;;;;;;;107575;1250;24217;-77
2023/05/01 06:25:48;;;;;;;13.00;8.30;;;;;;;;;;107627;1250;22539;-77
2023/05/01 06:28:14;;;;;;;16.20;7.90;;;;;;;;;;107605;1250;25332;-77
2023/05/01 06:30:41;;;;;;;12.80;7.30;;;;;;;;;;107542;1250;25223;-79
2023/05/01 06:33:09;;;;;;;13.70;7.40;;;;;;;;;;107633;1249;22515;-79
2023/05/01 06:35:37;;;;;;;14.60;7.90;;;;;;;;;;107545;1248;24221;-77
2023/05/01 06:38:03;;;;;;;16.00;9.20;;;;;;;;;;107815;1250;22485;-77
2023/05/01 06:40:31;;;;;;;20.60;12.00;;;;;;;;;;107588;1250;22848;-79
2023/05/01 06:42:57;;;;;;;16.20;9.80;;;;;;;;;;107651;1250;22517;-79
2023/05/01 06:45:23;;;;;;;14.80;8.80;;;;;;;;;;107552;1250;22528;-77
2023/05/01 06:47:50;;;;;;;22.00;10.70;;;;;;;;;;107578;1250;22518;-79
2023/05/01 06:50:16;;;;;;;18.30;8.10;;;;;;;;;;107564;1252;22541;-79
2023/05/01 06:52:43;;;;;;;16.00;9.30;;;;;;;;;;107552;1252;22639;-78
2023/05/01 06:55:09;;;;;;;13.40;8.20;;;;;;;;;;107566;1248;24333;-79
2023/05/01 06:57:36;;;;;;;12.50;6.90;;;;;;;;;;107578;1251;22528;-78
2023/05/01 07:00:02;;;;;;;14.90;7.60;;;;;;;;;;107556;1252;25481;-80
2023/05/01 07:02:29;;;;;;;11.90;7.50;;;;;;;;;;107596;1252;22618;-77
2023/05/01 07:04:56;;;;;;;15.70;8.20;;;;;;;;;;107539;1250;22525;-79
2023/05/01 07:07:23;;;;;;;10.40;5.60;;;;;;;;;;107617;1248;25816;-80
2023/05/01 07:09:49;;;;;;;8.90;5.60;;;;;;;;;;107555;1248;22535;-80
2023/05/01 07:12:16;;;;;;;16.40;8.00;;;;;;;;;;107564;1249;22958;-78
2023/05/01 07:14:43;;;;;;;14.40;7.20;;;;;;;;;;107523;1250;22651;-76
2023/05/01 07:17:09;;;;;;;13.00;6.60;;;;;;;;;;107462;1250;22964;-77
2023/05/01 07:19:35;;;;;;;13.20;5.60;;;;;;;;;;107537;1252;22715;-77
2023/05/01 07:22:03;;;;;;;7.50;3.80;;;;;;;;;;107546;1250;23032;-77
2023/05/01 07:24:29;;;;;;;5.20;3.40;;;;;;;;;;107592;1250;24366;-77
2023/05/01 07:26:56;;;;;;;6.30;2.40;;;;;;;;;;107560;1252;25208;-79
2023/05/01 07:29:23;;;;;;;5.80;2.70;;;;;;;;;;107593;1250;22519;-79
2023/05/01 07:31:49;;;;;;;5.00;2.50;;;;;;;;;;107583;1249;22609;-79
2023/05/01 07:34:17;;;;;;;5.50;2.90;;;;;;;;;;107559;1250;25345;-79
2023/05/01 07:36:43;;;;;;;9.40;3.00;;;;;;;;;;107441;1250;22649;-77
2023/05/01 07:39:09;;;;;;;7.00;2.80;;;;;;;;;;107528;1254;22533;-78
2023/05/01 07:41:36;;;;;;;4.50;2.70;;;;;;;;;;107583;1250;22531;-78
2023/05/01 07:44:02;;;;;;;8.00;2.40;;;;;;;;;;107681;1250;22565;-80
2023/05/01 07:46:29;;;;;;;6.60;2.90;;;;;;;;;;107601;1250;24188;-78
2023/05/01 07:48:55;;;;;;;5.90;2.70;;;;;;;;;;107612;1250;25379;-78
2023/05/01 07:51:22;;;;;;;10.10;3.10;;;;;;;;;;107535;1252;25349;-77
2023/05/01 07:53:49;;;;;;;6.50;2.10;;;;;;;;;;107749;1252;25218;-79
2023/05/01 07:56:15;;;;;;;6.20;2.80;;;;;;;;;;107561;1249;25207;-79
2023/05/01 07:58:42;;;;;;;8.50;5.00;;;;;;;;;;107524;1248;22967;-79
2023/05/01 08:01:09;;;;;;;10.00;3.90;;;;;;;;;;107573;1252;22519;-79
2023/05/01 08:03:35;;;;;;;6.00;2.70;;;;;;;;;;107523;1253;25271;-79
2023/05/01 08:06:02;;;;;;;12.80;3.30;;;;;;;;;;107552;1250;22621;-78
2023/05/01 08:08:28;;;;;;;4.80;2.50;;;;;;;;;;107559;1248;25375;-78
2023/05/01 08:10:55;;;;;;;3.00;2.10;;;;;;;;;;107532;1250;22642;-79
2023/05/01 08:13:21;;;;;;;5.80;2.70;;;;;;;;;;107585;1250;25265;-78
2023/05/01 08:15:48;;;;;;;8.40;2.90;;;;;;;;;;107545;1248;24187;-80
2023/05/01 08:18:19;;;;;;;5.00;2.00;;;;;;;;;;107594;1250;22550;-80
2023/05/01 08:20:48;;;;;;;5.90;2.40;;;;;;;;;;107583;1250;24367;-78
2023/05/01 08:23:15;;;;;;;4.70;2.70;;;;;;;;;;107553;1250;56299;-80
2023/05/01 08:25:42;;;;;;;5.60;2.40;;;;;;;;;;107564;1248;22536;-78
2023/05/01 08:28:08;;;;;;;9.30;2.20;;;;;;;;;;107580;1249;22525;-78
2023/05/01 08:30:35;;;;;;;7.00;2.40;;;;;;;;;;107537;1250;22552;-79
2023/05/01 08:33:02;;;;;;;4.70;2.70;;;;;;;;;;107561;1250;22532;-77
2023/05/01 08:35:28;;;;;;;4.50;2.40;;;;;;;;;;107580;1250;25290;-80
2023/05/01 08:37:55;;;;;;;5.50;2.30;;;;;;;;;;107547;1250;22521;-77
2023/05/01 08:40:22;;;;;;;4.40;2.20;;;;;;;;;;107569;1249;25229;-79
2023/05/01 08:42:48;;;;;;;5.90;2.70;;;;;;;;;;107578;1250;25397;-79
2023/05/01 08:45:14;;;;;;;4.10;2.40;;;;;;;;;;107548;1250;22651;-80
2023/05/01 08:47:42;;;;;;;6.70;2.90;;;;;;;;;;107507;1250;25233;-79
2023/05/01 08:50:09;;;;;;;4.60;2.30;;;;;;;;;;107527;1252;22480;-80
2023/05/01 08:52:37;;;;;;;3.00;2.00;;;;;;;;;;107600;1250;24379;-78
2023/05/01 08:55:04;;;;;;;5.10;2.40;;;;;;;;;;107547;1248;22502;-78
2023/05/01 08:57:30;;;;;;;5.00;2.80;;;;;;;;;;107595;1250;24243;-80
2023/05/01 08:59:57;;;;;;;4.90;2.80;;;;;;;;;;107532;1251;22612;-79
2023/05/01 09:02:23;;;;;;;5.60;3.00;;;;;;;;;;107774;1250;24103;-79
2023/05/01 09:04:50;;;;;;;6.00;2.40;;;;;;;;;;107503;1253;22537;-80
2023/05/01 09:07:16;;;;;;;6.00;2.10;;;;;;;;;;107465;1249;61953;-80
2023/05/01 09:09:42;;;;;;;6.30;2.70;;;;;;;;;;107395;1252;62020;-78
2023/05/01 09:12:12;;;;;;;3.40;1.90;;;;;;;;;;107469;1249;57757;-80
2023/05/01 09:14:38;;;;;;;5.20;2.50;;;;;;;;;;107493;1250;44130;-80
2023/05/01 09:17:05;;;;;;;5.90;1.90;;;;;;;;;;107520;1250;25331;-79
2023/05/01 09:19:31;;;;;;;4.80;2.20;;;;;;;;;;107469;1250;57837;-79
2023/05/01 09:21:58;;;;;;;5.10;2.40;;;;;;;;;;107613;1250;22534;-81
2023/05/01 09:24:24;;;;;;;4.00;2.30;;;;;;;;;;107577;1248;22522;-80
2023/05/01 09:26:51;;;;;;;4.60;2.80;;;;;;;;;;107555;1250;25490;-79
2023/05/01 09:29:36;;;;;;;5.40;2.60;;;;;;;;;;107615;1250;22538;-79
2023/05/01 09:32:18;;;;;;;4.60;2.40;;;;;;;;;;107553;1248;22739;-80
2023/05/01 09:34:44;;;;;;;11.00;4.70;;;;;;;;;;107779;1250;25291;-81
2023/05/01 09:37:26;;;;;;;35.70;19.40;;;;;;;;;;107533;1248;23633;-79
2023/05/01 09:40:06;;;;;;;8.80;5.70;;;;;;;;;;107556;1250;22995;-79
2023/05/01 09:42:32;;;;;;;8.50;3.20;;;;;;;;;;107588;1252;22521;-81
2023/05/01 09:44:59;;;;;;;4.00;1.90;;;;;;;;;;107521;1250;22526;-78
2023/05/01 09:47:27;;;;;;;3.40;1.60;;;;;;;;;;107558;1250;23230;-79
2023/05/01 09:49:54;;;;;;;;;;;;;;;;;;107725;1250;22510;-79
2023/05/01 09:52:20;;;;;;;4.70;2.70;;;;;;;;;;107630;1252;22517;-81
2023/05/01 09:54:47;;;;;;;4.90;2.40;;;;;;;;;;107521;1250;23390;-79
2023/05/01 09:57:13;;;;;;;5.00;2.40;;;;;;;;;;107454;1250;22521;-79
2023/05/01 09:59:39;;;;;;;4.80;1.80;;;;;;;;;;107431;1252;22533;-80
2023/05/01 10:02:06;;;;;;;5.00;2.70;;;;;;;;;;107435;1250;22525;-81
2023/05/01 10:04:33;;;;;;;5.80;2.20;;;;;;;;;;107763;1250;25464;-79
2023/05/01 10:07:12;;;;;;;8.70;5.10;;;;;;;;;;107892;1250;24294;-78
2023/05/01 10:09:40;;;;;;;10.20;5.90;;;;;;;;;;107734;1250;23763;-79
2023/05/01 10:12:06;;;;;;;7.50;5.20;;;;;;;;;;107795;1249;25388;-79
2023/05/01 10:14:37;;;;;;;3.70;2.00;;;;;;;;;;107798;1249;22525;-79
2023/05/01 10:17:16;;;;;;;8.30;4.90;;;;;;;;;;107692;1250;24199;-81
2023/05/01 10:19:42;;;;;;;5.60;3.90;;;;;;;;;;107802;1250;23390;-81
2023/05/01 10:22:08;;;;;;;8.70;6.80;;;;;;;;;;107800;1252;22514;-79
2023/05/01 10:24:35;;;;;;;3.00;2.10;;;;;;;;;;107832;1250;24546;-81
2023/05/01 10:27:04;;;;;;;3.20;1.70;;;;;;;;;;107767;1252;22558;-81
2023/05/01 10:29:30;;;;;;;3.10;1.70;;;;;;;;;;107799;1252;22578;-81
2023/05/01 10:31:57;;;;;;;4.50;1.80;;;;;;;;;;107732;1250;25043;-81
2023/05/01 10:34:23;;;;;;;8.50;6.30;;;;;;;;;;107793;1254;22911;-80
2023/05/01 10:36:53;;;;;;;3.90;2.20;;;;;;;;;;107776;1250;24208;-79
2023/05/01 10:39:33;;;;;;;3.80;2.50;;;;;;;;;;107768;1250;22562;-80
2023/05/01 10:42:00;;;;;;;3.30;1.60;;;;;;;;;;108112;1250;22546;-81
2023/05/01 10:44:27;;;;;;;3.60;1.60;;;;;;;;;;107988;1252;23373;-81
2023/05/01 10:46:53;;;;;;;4.30;1.50;;;;;;;;;;107755;1249;22465;-81
2023/05/01 10:49:20;;;;;;;3.10;2.20;;;;;;;;;;107901;1250;25014;-79
2023/05/01 10:51:56;;;;;;;3.00;1.90;;;;;;;;;;107792;1250;23341;-79
2023/05/01 10:54:23;;;;;;;4.90;3.30;;;;;;;;;;107843;1250;24411;-80
2023/05/01 10:56:50;;;;;;;7.80;4.90;;;;;;;;;;107767;1248;22533;-79
2023/05/01 10:59:16;;;;;;;2.80;1.70;;;;;;;;;;108010;1250;24214;-79
2023/05/01 11:01:52;;;;;;;3.50;1.60;;;;;;;;;;107779;1250;22532;-81
2023/05/01 11:04:25;;;;;;;7.40;4.40;;;;;;;;;;107762;1250;24268;-79
2023/05/01 11:07:04;;;;;;;10.50;5.50;;;;;;;;;;107430;1252;22532;-80
2023/05/01 11:09:34;;;;;;;4.90;1.90;;;;;;;;;;107400;1252;22521;-81
2023/05/01 11:12:01;;;;;;;5.10;1.90;;;;;;;;;;107449;1252;26474;-78
2023/05/01 11:14:27;;;;;;;3.10;2.00;;;;;;;;;;107337;1250;22586;-79
2023/05/01 11:16:53;;;;;;;4.00;2.20;;;;;;;;;;107385;1252;24932;-79
2023/05/01 11:19:20;;;;;;;8.70;3.40;;;;;;;;;;107357;1253;22540;-80
2023/05/01 11:21:46;;;;;;;5.60;2.10;;;;;;;;;;107388;1250;25239;-78
2023/05/01 11:24:13;;;;;;;3.90;2.30;;;;;;;;;;107383;1250;25506;-78
2023/05/01 11:26:40;;;;;;;5.90;2.30;;;;;;;;;;107359;1250;22529;-79
2023/05/01 11:29:08;;;;;;;6.80;2.80;;;;;;;;;;107490;1250;25515;-79
2023/05/01 11:31:34;;;;;;;4.80;2.50;;;;;;;;;;107532;1250;22518;-78
2023/05/01 11:34:01;;;;;;;3.20;1.90;;;;;;;;;;107651;1252;23246;-78
2023/05/01 11:36:27;;;;;;;5.00;2.70;;;;;;;;;;107557;1250;22518;-78
2023/05/01 11:38:58;;;;;;;5.30;2.80;;;;;;;;;;107573;1250;22644;-79
2023/05/01 11:41:25;;;;;;;4.70;2.50;;;;;;;;;;107547;1250;22563;-77
2023/05/01 11:43:52;;;;;;;4.50;2.50;;;;;;;;;;107502;1250;23449;-77
2023/05/01 11:46:22;;;;;;;4.10;2.60;;;;;;;;;;107388;1252;22518;-80
2023/05/01 11:48:49;;;;;;;4.30;2.80;;;;;;;;;;107394;1252;22548;-77
2023/05/01 11:51:16;;;;;;;3.80;2.70;;;;;;;;;;107354;1252;22521;-78
2023/05/01 11:53:57;;;;;;;3.80;2.50;;;;;;;;;;107413;1250;25394;-77
2023/05/01 11:56:23;;;;;;;4.20;2.60;;;;;;;;;;107461;1252;25333;-77
2023/05/01 11:58:50;;;;;;;3.50;2.30;;;;;;;;;;107442;1250;25506;-78
2023/05/01 12:01:16;;;;;;;4.20;2.20;;;;;;;;;;107330;1252;22517;-79
2023/05/01 12:03:43;;;;;;;6.90;3.50;;;;;;;;;;107345;1250;22533;-77
2023/05/01 12:06:11;;;;;;;6.20;3.50;;;;;;;;;;107389;1250;22515;-79
2023/05/01 12:08:40;;;;;;;;;;;;;;;;;;107552;1250;22635;-79
2023/05/01 12:11:06;;;;;;;4.00;2.00;;;;;;;;;;107636;1252;25370;-79
2023/05/01 12:13:33;;;;;;;6.80;2.10;;;;;;;;;;107711;1248;25226;-77
2023/05/01 12:16:00;;;;;;;3.20;1.90;;;;;;;;;;107814;1250;24189;-78
2023/05/01 12:18:26;;;;;;;6.60;2.30;;;;;;;;;;107587;1250;25326;-81
2023/05/01 12:20:53;;;;;;;3.80;2.10;;;;;;;;;;107605;1252;22519;-79
2023/05/01 12:23:31;;;;;;;3.40;1.80;;;;;;;;;;107436;1252;22514;-78
2023/05/01 12:25:58;;;;;;;3.10;1.90;;;;;;;;;;107505;1252;22522;-80
2023/05/01 12:28:26;;;;;;;4.10;1.90;;;;;;;;;;107541;1250;24210;-80
2023/05/01 12:30:56;;;;;;;4.70;2.60;;;;;;;;;;107425;1250;24340;-81
2023/05/01 12:33:22;;;;;;;4.40;2.00;;;;;;;;;;107480;1250;25507;-81
2023/05/01 12:35:49;;;;;;;5.30;2.00;;;;;;;;;;107540;1252;25306;-81
2023/05/01 12:38:16;;;;;;;5.10;2.00;;;;;;;;;;107533;1250;22697;-81
2023/05/01 12:40:56;;;;;;;3.20;1.60;;;;;;;;;;107500;1250;25329;-81
2023/05/01 12:43:29;;;;;;;3.30;1.90;;;;;;;;;;107857;1248;22529;-80
2023/05/01 12:45:56;;;;;;;2.90;2.00;;;;;;;;;;107889;1252;25461;-82
2023/05/01 12:48:22;;;;;;;3.10;2.00;;;;;;;;;;107867;1250;24230;-82
2023/05/01 12:50:55;;;;;;;4.70;2.00;;;;;;;;;;107895;1252;23686;-80
2023/05/01 12:53:23;;;;;;;2.90;1.60;;;;;;;;;;107898;1251;22524;-82
2023/05/01 12:55:50;;;;;;;2.00;1.50;;;;;;;;;;107829;1252;25312;-80
2023/05/01 12:58:16;;;;;;;4.40;1.90;;;;;;;;;;107883;1250;22693;-80
2023/05/01 13:00:50;;;;;;;4.10;2.90;;;;;;;;;;107491;1250;22522;-79
2023/05/01 13:03:23;;;;;;;4.30;3.30;;;;;;;;;;107487;1252;25302;-79
2023/05/01 13:05:59;;;;;;;4.00;2.60;;;;;;;;;;107453;1252;22531;-81
2023/05/01 13:08:32;;;;;;;2.90;1.90;;;;;;;;;;107963;1251;22619;-81
2023/05/01 13:10:59;;;;;;;3.70;2.60;;;;;;;;;;107887;1251;23776;-80
2023/05/01 13:13:30;;;;;;;5.60;2.70;;;;;;;;;;107838;1250;25453;-81
2023/05/01 13:16:07;;;;;;;4.60;2.30;;;;;;;;;;107865;1251;22532;-79
2023/05/01 13:18:50;;;;;;;4.20;2.20;;;;;;;;;;107929;1249;23064;-82
2023/05/01 13:21:20;;;;;;;5.40;2.90;;;;;;;;;;107812;1252;23091;-78
2023/05/01 13:23:56;;;;;;;4.60;2.60;;;;;;;;;;107840;1250;24187;-80
2023/05/01 13:26:34;;;;;;;6.10;3.60;;;;;;;;;;107890;1253;22533;-79
2023/05/01 13:29:01;;;;;;;8.00;3.40;;;;;;;;;;107905;1252;25269;-78
2023/05/01 13:31:28;;;;;;;4.80;2.70;;;;;;;;;;107812;1253;22526;-79
2023/05/01 13:33:55;;;;;;;4.90;2.00;;;;;;;;;;107890;1249;22552;-80
2023/05/01 13:36:22;;;;;;;5.10;2.60;;;;;;;;;;107867;1253;22741;-79
2023/05/01 13:38:49;;;;;;;3.00;2.70;;;;;;;;;;107883;1250;25582;-78
2023/05/01 13:41:17;;;;;;;3.70;1.80;;;;;;;;;;107910;1251;23658;-80
2023/05/01 13:43:44;;;;;;;8.10;2.00;;;;;;;;;;107473;1250;23778;-80
2023/05/01 13:46:11;;;;;;;3.30;2.40;;;;;;;;;;107513;1251;22986;-80
2023/05/01 13:48:40;;;;;;;4.80;2.20;;;;;;;;;;107669;1254;24933;-79
2023/05/01 13:51:07;;;;;;;5.50;2.60;;;;;;;;;;107477;1253;25340;-79
2023/05/01 13:53:33;;;;;;;4.00;2.10;;;;;;;;;;107507;1252;22539;-79
2023/05/01 13:56:02;;;;;;;3.90;2.40;;;;;;;;;;107531;1251;22533;-80
2023/05/01 13:58:28;;;;;;;5.40;2.50;;;;;;;;;;107407;1249;148552;-80
2023/05/01 14:00:55;;;;;;;5.50;2.20;;;;;;;;;;107567;1251;25362;-80
2023/05/01 14:03:22;;;;;;;4.50;2.60;;;;;;;;;;107536;1254;23252;-78
2023/05/01 14:05:48;;;;;;;5.00;2.10;;;;;;;;;;107519;1251;22602;-80
2023/05/01 14:08:14;;;;;;;3.90;2.20;;;;;;;;;;107521;1253;22540;-78
2023/05/01 14:10:41;;;;;;;7.00;2.40;;;;;;;;;;107568;1251;22562;-80
2023/05/01 14:13:08;;;;;;;6.00;2.60;;;;;;;;;;107570;1251;22518;-80
2023/05/01 14:15:35;;;;;;;5.20;2.10;;;;;;;;;;107560;1250;22534;-79
2023/05/01 14:18:05;;;;;;;9.90;2.60;;;;;;;;;;107527;1251;22547;-80
2023/05/01 14:20:32;;;;;;;3.40;1.90;;;;;;;;;;107648;1250;25436;-77
2023/05/01 14:22:58;;;;;;;4.40;2.30;;;;;;;;;;107538;1251;25451;-78